Time;durP1;ratioP1;P1;durP2;ratioP2;P2;SDS_P1;SDS_P2;PMS_P1;PMS_P2;Temp;Humidity;BMP_temperature;BMP_pressure;BME280_temperature;BME280_humidity;BME280_pressure;Samples;Min_cycle;Max_cycle;Signal;HPM_P1;HPM_P2
2024/03/21 00:02:26;;;;;;;1.50;1.20;;;11.90;98.20;;;;;;4893905;29;20478;-78
2024/03/21 00:04:52;;;;;;;1.50;1.00;;;11.90;98.20;;;;;;4890889;29;20613;-78
2024/03/21 00:07:18;;;;;;;1.47;1.00;;;11.90;98.20;;;;;;4891381;29;20473;-78
2024/03/21 00:09:44;;;;;;;1.50;1.00;;;11.90;98.20;;;;;;4894259;29;20217;-78
2024/03/21 00:12:11;;;;;;;1.50;1.00;;;11.90;98.20;;;;;;4898734;29;20479;-78
2024/03/21 00:14:38;;;;;;;1.50;1.00;;;11.80;98.20;;;;;;4889963;29;20616;-78
2024/03/21 00:17:06;;;;;;;1.50;1.00;;;11.80;98.20;;;;;;4891801;29;20521;-79
2024/03/21 00:19:32;;;;;;;1.50;1.00;;;11.80;98.20;;;;;;4897909;29;20481;-78
2024/03/21 00:21:58;;;;;;;1.50;1.00;;;11.80;98.20;;;;;;4895404;29;20469;-80
2024/03/21 00:24:24;;;;;;;1.50;1.00;;;11.70;98.20;;;;;;4896916;29;20225;-79
2024/03/21 00:26:51;;;;;;;1.50;1.07;;;11.70;98.20;;;;;;4895955;29;20472;-80
2024/03/21 00:29:17;;;;;;;1.50;1.00;;;11.60;98.20;;;;;;4894633;29;20685;-79
2024/03/21 00:31:46;;;;;;;1.50;1.03;;;11.50;98.20;;;;;;4894263;29;20475;-80
2024/03/21 00:34:12;;;;;;;1.50;1.10;;;11.50;98.20;;;;;;4893578;29;20296;-80
2024/03/21 00:36:38;;;;;;;1.50;1.10;;;11.50;98.20;;;;;;4893917;29;20589;-80
2024/03/21 00:39:04;;;;;;;1.50;1.00;;;11.50;98.20;;;;;;4895670;29;20215;-80
2024/03/21 00:41:31;;;;;;;1.50;1.00;;;11.50;98.20;;;;;;4895970;29;20473;-79
2024/03/21 00:43:57;;;;;;;1.50;1.00;;;11.50;98.20;;;;;;4896667;29;20241;-80
2024/03/21 00:46:24;;;;;;;1.50;1.00;;;11.50;98.20;;;;;;4896948;29;20566;-80
2024/03/21 00:48:51;;;;;;;1.50;1.00;;;11.40;98.20;;;;;;4894595;29;20222;-80
2024/03/21 00:51:18;;;;;;;1.50;1.00;;;11.40;98.20;;;;;;4896195;29;20595;-79
2024/03/21 00:53:44;;;;;;;1.50;1.10;;;11.40;98.20;;;;;;4894488;29;20627;-80
2024/03/21 00:56:11;;;;;;;1.50;1.10;;;11.40;98.20;;;;;;4895028;29;20505;-80
2024/03/21 00:58:37;;;;;;;1.50;1.00;;;11.30;98.20;;;;;;4892344;29;20546;-80
2024/03/21 01:01:04;;;;;;;1.50;1.10;;;11.30;98.20;;;;;;4894181;29;20477;-79
2024/03/21 01:03:30;;;;;;;1.50;1.00;;;11.30;98.20;;;;;;4896555;29;20237;-77
2024/03/21 01:05:58;;;;;;;1.50;1.10;;;11.20;98.20;;;;;;4891311;29;20928;-77
2024/03/21 01:08:24;;;;;;;1.50;1.10;;;11.20;98.20;;;;;;4887570;29;20208;-77
2024/03/21 01:10:51;;;;;;;1.50;1.10;;;11.20;98.20;;;;;;4889626;29;20477;-77
2024/03/21 01:13:17;;;;;;;1.50;1.00;;;11.20;98.20;;;;;;4888983;29;20228;-77
2024/03/21 01:15:44;;;;;;;1.50;1.10;;;11.10;98.20;;;;;;4890885;29;20505;-77
2024/03/21 01:18:10;;;;;;;1.50;1.10;;;11.10;98.20;;;;;;4889168;29;20248;-77
2024/03/21 01:20:40;;;;;;;1.50;1.10;;;11.10;98.20;;;;;;4893331;29;20544;-79
2024/03/21 01:23:07;;;;;;;1.50;1.10;;;11.10;98.20;;;;;;4891593;29;20340;-80
2024/03/21 01:25:34;;;;;;;1.50;1.10;;;11.10;98.20;;;;;;4894991;29;20548;-79
2024/03/21 01:28:02;;;;;;;1.50;1.00;;;11.00;98.20;;;;;;4894665;29;20483;-79
2024/03/21 01:30:31;;;;;;;1.50;1.10;;;11.00;98.20;;;;;;4896837;29;20471;-78
2024/03/21 01:32:57;;;;;;;1.50;1.10;;;11.00;98.20;;;;;;4890239;29;20490;-79
2024/03/21 01:35:24;;;;;;;1.50;0.90;;;11.00;98.20;;;;;;4893186;29;20498;-79
2024/03/21 01:37:50;;;;;;;1.50;1.00;;;11.00;98.20;;;;;;4894597;29;20479;-79
2024/03/21 01:40:19;;;;;;;1.50;1.10;;;10.90;98.20;;;;;;4894104;29;21108;-81
2024/03/21 01:42:48;;;;;;;1.50;1.00;;;10.90;98.20;;;;;;4896124;29;20289;-83
2024/03/21 01:45:16;;;;;;;1.50;1.10;;;10.90;98.20;;;;;;4895108;29;20470;-81
2024/03/21 01:47:42;;;;;;;1.50;1.10;;;10.90;98.20;;;;;;4901925;29;20984;-80
2024/03/21 01:50:12;;;;;;;1.50;1.00;;;10.90;98.20;;;;;;4896935;29;20473;-81
2024/03/21 01:52:40;;;;;;;1.50;1.10;;;10.90;98.20;;;;;;4902941;29;20486;-79
2024/03/21 01:55:08;;;;;;;1.50;1.10;;;10.90;98.20;;;;;;4894713;29;20475;-81
2024/03/21 01:57:36;;;;;;;1.50;1.10;;;10.90;98.20;;;;;;4896665;29;20581;-81
2024/03/21 02:00:03;;;;;;;1.50;1.10;;;10.90;98.20;;;;;;4890690;29;20496;-79
2024/03/21 02:02:30;;;;;;;1.50;1.10;;;10.90;98.20;;;;;;4888903;29;20981;-78
2024/03/21 02:04:56;;;;;;;1.50;1.10;;;10.80;98.20;;;;;;4894936;29;20843;-78
2024/03/21 02:07:24;;;;;;;1.50;1.03;;;10.80;98.20;;;;;;4893522;29;20470;-78
2024/03/21 02:09:49;;;;;;;1.50;1.10;;;10.90;98.20;;;;;;4891820;29;20497;-78
2024/03/21 02:12:46;;;;;;;1.50;1.00;;;10.80;98.20;;;;;;4889147;29;20544;-79
2024/03/21 02:15:12;;;;;;;1.50;1.00;;;10.90;98.20;;;;;;4892150;29;20304;-78
2024/03/21 02:17:39;;;;;;;1.50;1.10;;;10.90;98.20;;;;;;4892168;29;20486;-78
2024/03/21 02:20:07;;;;;;;1.50;1.00;;;10.80;98.20;;;;;;4897483;29;20759;-78
2024/03/21 02:22:38;;;;;;;1.50;1.00;;;10.80;98.20;;;;;;4896138;29;20481;-78
2024/03/21 02:25:04;;;;;;;1.50;1.10;;;10.90;98.20;;;;;;4896558;29;20483;-78
2024/03/21 02:27:31;;;;;;;1.50;1.10;;;10.90;98.20;;;;;;4897783;29;20997;-78
2024/03/21 02:29:57;;;;;;;1.50;1.10;;;10.90;98.20;;;;;;4898487;29;20465;-78
2024/03/21 02:32:24;;;;;;;1.50;1.10;;;10.90;98.20;;;;;;4897004;29;22550;-79
2024/03/21 02:34:54;;;;;;;1.50;1.10;;;10.90;98.20;;;;;;4900702;29;20482;-80
2024/03/21 02:37:20;;;;;;;1.50;1.00;;;10.80;98.20;;;;;;4898037;29;21000;-79
2024/03/21 02:39:50;;;;;;;1.47;1.10;;;10.90;98.20;;;;;;4897111;29;20473;-78
2024/03/21 02:42:17;;;;;;;1.50;1.00;;;10.90;98.20;;;;;;4896129;29;20980;-78
2024/03/21 02:44:43;;;;;;;1.50;1.10;;;10.90;98.20;;;;;;4896092;29;20953;-78
2024/03/21 02:47:10;;;;;;;1.50;1.10;;;10.90;98.20;;;;;;4895011;29;20476;-78
2024/03/21 02:49:36;;;;;;;1.47;1.03;;;10.90;98.20;;;;;;4898791;29;20233;-78
2024/03/21 02:52:03;;;;;;;1.50;1.00;;;11.00;98.20;;;;;;4894861;29;20486;-78
2024/03/21 02:54:31;;;;;;;1.50;1.10;;;11.00;98.20;;;;;;4891729;29;20306;-77
2024/03/21 02:56:59;;;;;;;1.50;1.10;;;11.00;98.20;;;;;;4895819;29;20489;-77
2024/03/21 02:59:25;;;;;;;1.50;1.20;;;11.00;98.20;;;;;;4896086;29;20469;-77
2024/03/21 03:01:52;;;;;;;1.50;1.10;;;11.00;98.20;;;;;;4895129;29;20867;-77
2024/03/21 03:04:17;;;;;;;1.47;1.00;;;11.00;98.20;;;;;;4896171;29;20485;-78
2024/03/21 03:06:44;;;;;;;1.50;1.00;;;11.00;98.20;;;;;;4898605;29;20781;-77
2024/03/21 03:09:10;;;;;;;1.50;1.00;;;11.00;98.20;;;;;;4899498;29;20221;-82
2024/03/21 03:11:37;;;;;;;1.50;1.00;;;11.00;98.20;;;;;;4899737;29;20472;-79
2024/03/21 03:14:06;;;;;;;1.50;1.10;;;11.00;98.20;;;;;;4899277;29;20233;-81
2024/03/21 03:16:33;;;;;;;1.50;1.10;;;11.00;98.20;;;;;;4896439;29;20516;-78
2024/03/21 03:19:00;;;;;;;1.47;1.00;;;11.00;98.20;;;;;;4899904;29;20478;-80
2024/03/21 03:21:27;;;;;;;1.50;1.00;;;11.00;98.20;;;;;;4900399;29;20591;-81
2024/03/21 03:23:52;;;;;;;1.47;1.00;;;11.10;98.20;;;;;;4899126;29;21172;-80
2024/03/21 03:26:19;;;;;;;1.50;1.00;;;11.10;98.20;;;;;;4903229;29;20497;-81
2024/03/21 03:28:45;;;;;;;1.73;1.63;;;11.10;98.20;;;;;;4902739;29;20277;-81
2024/03/21 03:31:15;;;;;;;1.47;0.90;;;11.20;98.20;;;;;;4902497;29;20496;-81
2024/03/21 03:36:28;;;;;;;1.50;1.10;;;11.20;98.20;;;;;;4903267;29;20573;-80
2024/03/21 03:38:54;;;;;;;1.50;1.00;;;11.20;98.20;;;;;;4903040;29;20529;-79
2024/03/21 03:41:21;;;;;;;1.50;1.10;;;11.30;98.20;;;;;;4904850;29;20537;-81
2024/03/21 03:43:48;;;;;;;1.50;1.00;;;11.30;98.20;;;;;;4902501;29;20489;-81
2024/03/21 03:46:16;;;;;;;1.60;1.33;;;11.30;98.20;;;;;;4903642;29;20507;-80
2024/03/21 03:48:43;;;;;;;1.50;1.10;;;11.30;98.20;;;;;;4903695;29;20465;-80
2024/03/21 03:51:10;;;;;;;1.50;1.00;;;11.30;98.20;;;;;;4905264;29;20483;-81
2024/03/21 03:53:36;;;;;;;1.50;1.00;;;11.40;98.20;;;;;;4902184;29;20501;-80
2024/03/21 03:56:02;;;;;;;1.50;1.10;;;11.30;98.20;;;;;;4902908;29;20489;-80
2024/03/21 03:58:29;;;;;;;1.47;1.00;;;11.40;98.20;;;;;;4902019;29;20568;-79
2024/03/21 04:00:55;;;;;;;1.50;1.00;;;11.40;98.20;;;;;;4899507;29;20472;-79
2024/03/21 04:03:23;;;;;;;1.50;1.10;;;11.40;98.20;;;;;;4902151;29;20925;-81
2024/03/21 04:05:57;;;;;;;1.50;1.10;;;11.40;98.20;;;;;;4901146;29;20457;-80
2024/03/21 04:08:24;;;;;;;1.50;1.10;;;11.40;98.20;;;;;;4901304;29;20473;-80
2024/03/21 04:10:49;;;;;;;1.50;1.00;;;11.40;98.20;;;;;;4903062;29;20474;-80
2024/03/21 04:13:18;;;;;;;1.50;1.10;;;11.40;98.20;;;;;;4901018;29;20489;-81
2024/03/21 04:15:44;;;;;;;1.50;1.10;;;11.40;98.20;;;;;;4903604;29;20218;-81
2024/03/21 04:18:11;;;;;;;1.50;1.10;;;11.40;98.20;;;;;;4899773;29;20484;-80
2024/03/21 04:20:38;;;;;;;1.47;1.00;;;11.40;98.20;;;;;;4903372;29;20213;-80
2024/03/21 04:23:05;;;;;;;1.50;1.00;;;11.40;98.20;;;;;;4902321;29;20493;-79
2024/03/21 04:25:31;;;;;;;1.50;1.00;;;11.40;98.20;;;;;;4901438;29;20461;-78
2024/03/21 04:27:58;;;;;;;1.50;1.00;;;11.40;98.20;;;;;;4902279;29;21011;-81
2024/03/21 04:30:24;;;;;;;1.50;1.10;;;11.40;98.20;;;;;;4902133;29;20224;-81
2024/03/21 04:32:50;;;;;;;1.50;1.10;;;11.40;98.20;;;;;;4900587;29;20638;-78
2024/03/21 04:35:16;;;;;;;1.50;1.00;;;11.40;98.20;;;;;;4900112;29;20473;-78
2024/03/21 04:37:45;;;;;;;1.50;1.00;;;11.40;98.20;;;;;;4899638;29;20554;-77
2024/03/21 04:40:12;;;;;;;1.50;1.10;;;11.40;98.20;;;;;;4900018;29;20616;-78
2024/03/21 04:42:39;;;;;;;1.50;1.00;;;11.50;98.20;;;;;;4899290;29;20505;-77
2024/03/21 04:45:07;;;;;;;1.40;1.00;;;11.50;98.20;;;;;;4899726;29;20466;-78
2024/03/21 04:47:34;;;;;;;1.50;1.10;;;11.50;98.20;;;;;;4902192;29;20473;-78
2024/03/21 04:49:59;;;;;;;1.50;1.10;;;11.50;98.20;;;;;;4901355;29;20918;-78
2024/03/21 04:52:27;;;;;;;1.60;1.43;;;11.50;98.20;;;;;;4898724;29;20557;-77
2024/03/21 04:54:54;;;;;;;1.50;1.00;;;11.60;98.20;;;;;;4901083;29;20319;-79
2024/03/21 04:57:21;;;;;;;1.50;1.10;;;11.60;98.20;;;;;;4902136;29;20556;-78
2024/03/21 04:59:47;;;;;;;1.50;1.00;;;11.60;98.20;;;;;;4902091;29;20480;-80
2024/03/21 05:02:14;;;;;;;1.50;1.00;;;11.60;98.20;;;;;;4901140;29;20529;-78
2024/03/21 05:04:39;;;;;;;1.47;1.00;;;11.60;98.20;;;;;;4902163;29;20265;-79
2024/03/21 05:07:06;;;;;;;1.50;1.00;;;11.60;98.20;;;;;;4902112;29;20476;-79
2024/03/21 05:09:32;;;;;;;1.50;1.10;;;11.60;98.20;;;;;;4901541;29;20217;-79
2024/03/21 05:12:03;;;;;;;1.50;1.10;;;11.50;98.20;;;;;;4901183;29;20507;-77
2024/03/21 05:14:33;;;;;;;1.50;1.00;;;11.50;98.20;;;;;;4901049;29;20237;-78
2024/03/21 05:17:00;;;;;;;1.70;1.30;;;11.50;98.20;;;;;;4902415;29;20565;-79
2024/03/21 05:19:26;;;;;;;1.50;1.10;;;11.40;98.20;;;;;;4901471;29;20488;-79
2024/03/21 05:21:53;;;;;;;1.50;1.00;;;11.40;98.20;;;;;;4906225;29;20502;-79
2024/03/21 05:24:18;;;;;;;1.50;1.00;;;11.30;98.20;;;;;;4899212;29;20290;-79
2024/03/21 05:26:45;;;;;;;1.50;1.10;;;11.30;98.20;;;;;;4901769;29;20473;-79
2024/03/21 05:29:12;;;;;;;1.50;1.10;;;11.30;98.20;;;;;;4899947;29;20252;-79
2024/03/21 05:31:40;;;;;;;1.60;1.20;;;11.30;98.20;;;;;;4901864;29;20501;-79
2024/03/21 05:34:05;;;;;;;1.50;1.10;;;11.20;98.20;;;;;;4901515;29;20493;-79
2024/03/21 05:36:32;;;;;;;1.50;1.20;;;11.20;98.20;;;;;;4899624;29;20556;-77
2024/03/21 05:38:59;;;;;;;1.47;1.00;;;11.20;98.20;;;;;;4900598;29;20221;-79
2024/03/21 05:41:26;;;;;;;1.50;1.10;;;11.10;98.20;;;;;;4898302;29;20465;-79
2024/03/21 05:43:52;;;;;;;1.50;1.00;;;11.10;98.20;;;;;;4898933;29;20494;-78
2024/03/21 05:46:26;;;;;;;1.50;1.00;;;11.10;98.20;;;;;;4900247;29;20462;-79
2024/03/21 05:48:52;;;;;;;1.50;1.07;;;11.00;98.20;;;;;;4899799;29;20227;-78
2024/03/21 05:51:19;;;;;;;1.50;1.00;;;11.00;98.20;;;;;;4896545;29;20825;-78
2024/03/21 05:53:45;;;;;;;1.50;1.10;;;10.90;98.20;;;;;;4898559;29;20497;-78
2024/03/21 05:56:13;;;;;;;1.50;1.10;;;10.90;98.20;;;;;;4900020;29;20606;-78
2024/03/21 05:58:38;;;;;;;1.47;1.00;;;10.90;98.20;;;;;;4905026;29;20223;-79
2024/03/21 06:01:22;;;;;;;1.50;1.00;;;10.90;98.20;;;;;;4901092;29;20545;-78
2024/03/21 06:03:49;;;;;;;1.50;1.10;;;10.90;98.20;;;;;;4900881;29;20272;-79
2024/03/21 06:06:16;;;;;;;1.50;1.00;;;10.90;98.20;;;;;;4901459;29;20698;-79
2024/03/21 06:08:42;;;;;;;1.50;1.00;;;10.90;98.20;;;;;;4899403;29;20465;-79
2024/03/21 06:11:09;;;;;;;1.50;1.10;;;11.00;98.20;;;;;;4900518;29;20472;-80
2024/03/21 06:13:35;;;;;;;1.50;1.10;;;11.00;98.20;;;;;;4899785;29;20504;-79
2024/03/21 06:16:02;;;;;;;1.50;1.10;;;11.10;98.20;;;;;;4902149;29;20959;-79
2024/03/21 06:18:27;;;;;;;1.50;1.03;;;11.10;98.20;;;;;;4900237;29;20219;-78
2024/03/21 06:20:56;;;;;;;1.50;1.00;;;11.20;98.20;;;;;;4901738;29;20501;-79
2024/03/21 06:23:22;;;;;;;1.50;1.00;;;11.20;98.20;;;;;;4900500;29;20233;-79
2024/03/21 06:25:48;;;;;;;1.50;1.10;;;11.30;98.20;;;;;;4901341;29;20553;-79
2024/03/21 06:28:14;;;;;;;1.50;1.10;;;11.30;98.20;;;;;;4900724;29;20552;-79
2024/03/21 06:30:41;;;;;;;1.50;1.10;;;11.40;98.20;;;;;;4901891;29;20497;-79
2024/03/21 06:33:07;;;;;;;1.50;1.10;;;11.40;98.20;;;;;;4901303;29;20233;-79
2024/03/21 06:35:34;;;;;;;1.50;1.00;;;11.40;98.20;;;;;;4900468;29;20501;-80
2024/03/21 06:38:01;;;;;;;1.50;1.10;;;11.50;98.20;;;;;;4899367;29;20236;-80
2024/03/21 06:40:28;;;;;;;1.50;1.10;;;11.50;98.20;;;;;;4896158;29;20499;-79
2024/03/21 06:42:54;;;;;;;1.50;1.00;;;11.50;98.20;;;;;;4898491;29;20581;-80
2024/03/21 06:45:21;;;;;;;1.50;1.10;;;11.60;98.20;;;;;;4900583;29;20501;-79
2024/03/21 06:47:50;;;;;;;1.50;1.00;;;11.70;98.20;;;;;;4898212;29;20213;-80
2024/03/21 06:50:18;;;;;;;3.60;3.30;;;11.80;98.20;;;;;;4896881;29;20470;-80
2024/03/21 06:52:44;;;;;;;1.77;1.67;;;11.90;98.20;;;;;;4897717;29;20497;-81
2024/03/21 06:55:13;;;;;;;1.50;1.00;;;12.00;98.20;;;;;;4899167;29;20484;-80
2024/03/21 06:57:40;;;;;;;1.50;1.00;;;12.10;98.20;;;;;;4897878;29;20525;-79
2024/03/21 07:00:10;;;;;;;1.50;1.00;;;12.20;98.20;;;;;;4892673;29;20465;-80
2024/03/21 07:02:36;;;;;;;1.50;1.00;;;12.30;98.20;;;;;;4898357;29;20508;-80
2024/03/21 07:05:03;;;;;;;1.50;1.00;;;12.40;98.20;;;;;;4897646;29;20497;-80
2024/03/21 07:07:29;;;;;;;1.60;1.30;;;12.40;98.20;;;;;;4896773;29;20300;-80
2024/03/21 07:09:55;;;;;;;1.50;1.00;;;12.50;98.20;;;;;;4898862;29;21017;-79
2024/03/21 07:12:23;;;;;;;1.50;1.10;;;12.50;98.20;;;;;;4895652;29;20599;-81
2024/03/21 07:14:50;;;;;;;1.50;1.10;;;12.50;98.20;;;;;;4898900;29;20569;-80
2024/03/21 07:17:15;;;;;;;1.50;1.07;;;12.50;98.20;;;;;;4896766;29;20500;-79
2024/03/21 07:19:44;;;;;;;1.50;1.10;;;12.50;98.20;;;;;;4895937;29;20552;-81
2024/03/21 07:22:10;;;;;;;1.50;1.00;;;12.40;98.20;;;;;;4897916;29;20261;-80
2024/03/21 07:27:13;;;;;;;1.50;1.00;;;12.40;98.20;;;;;;5048459;23;20573;-82
2024/03/21 07:29:41;;;;;;;1.50;1.10;;;12.40;98.20;;;;;;4877901;29;20878;-79
2024/03/21 07:32:08;;;;;;;1.50;1.00;;;12.40;98.20;;;;;;4878421;29;20481;-81
2024/03/21 07:34:34;;;;;;;1.50;1.00;;;12.40;98.20;;;;;;4879165;29;20479;-80
2024/03/21 07:37:03;;;;;;;1.50;1.00;;;12.30;98.20;;;;;;4886221;29;20504;-79
2024/03/21 07:39:28;;;;;;;1.50;1.00;;;12.30;98.20;;;;;;4877026;29;20489;-81
2024/03/21 07:41:55;;;;;;;7.30;4.70;;;12.30;98.20;;;;;;4875858;29;21023;-80
2024/03/21 07:44:21;;;;;;;4.03;2.23;;;12.30;98.20;;;;;;4881144;29;20224;-79
2024/03/21 07:46:49;;;;;;;1.50;1.00;;;12.30;98.20;;;;;;4882218;29;20497;-78
2024/03/21 07:49:15;;;;;;;1.50;1.00;;;12.30;98.20;;;;;;4879908;29;20538;-80
2024/03/21 07:51:42;;;;;;;1.50;1.00;;;12.20;98.20;;;;;;4882533;29;20547;-80
2024/03/21 07:54:07;;;;;;;1.47;1.00;;;12.30;98.20;;;;;;4881842;29;20214;-78
2024/03/21 07:56:36;;;;;;;1.50;1.00;;;12.30;98.20;;;;;;4879105;29;20485;-79
2024/03/21 07:59:05;;;;;;;1.50;1.00;;;12.30;98.20;;;;;;4880996;29;20209;-78
2024/03/21 08:01:32;;;;;;;1.47;1.00;;;12.30;98.20;;;;;;4879148;29;20526;-79
2024/03/21 08:04:03;;;;;;;1.50;1.10;;;12.30;98.20;;;;;;4878557;29;21059;-77
2024/03/21 08:06:30;;;;;;;1.50;1.00;;;12.30;98.20;;;;;;4876841;29;20570;-80
2024/03/21 08:08:56;;;;;;;1.50;1.10;;;12.40;98.20;;;;;;4880716;29;20465;-80
2024/03/21 08:11:23;;;;;;;1.50;1.00;;;12.40;98.20;;;;;;4882552;29;20479;-78
2024/03/21 08:13:48;;;;;;;1.50;1.00;;;12.40;98.20;;;;;;4884243;29;20477;-78
2024/03/21 08:16:15;;;;;;;1.90;1.73;;;12.40;98.20;;;;;;4881216;29;20493;-78
2024/03/21 08:18:41;;;;;;;1.50;1.10;;;12.50;98.20;;;;;;4885800;29;20214;-80
2024/03/21 08:21:09;;;;;;;1.50;1.00;;;12.50;98.20;;;;;;4884719;29;20481;-80
2024/03/21 08:23:36;;;;;;;1.50;1.00;;;12.60;98.20;;;;;;4882116;29;20337;-80
2024/03/21 08:26:03;;;;;;;1.50;1.00;;;12.60;98.20;;;;;;4884563;29;21104;-78
2024/03/21 08:28:29;;;;;;;1.50;1.10;;;12.70;98.20;;;;;;4879639;29;20810;-80
2024/03/21 08:30:56;;;;;;;1.50;1.00;;;12.70;98.20;;;;;;4883924;29;20485;-80
2024/03/21 08:33:23;;;;;;;3.63;3.33;;;12.80;98.20;;;;;;4882730;29;20519;-78
2024/03/21 08:35:50;;;;;;;1.60;1.50;;;12.80;98.20;;;;;;4882970;29;21028;-78
2024/03/21 08:38:18;;;;;;;1.50;1.00;;;12.80;98.20;;;;;;4885796;29;20544;-78
2024/03/21 08:40:50;;;;;;;1.50;1.00;;;12.80;98.20;;;;;;4876191;29;21003;-78
2024/03/21 08:43:16;;;;;;;1.50;1.10;;;12.80;98.20;;;;;;4874955;29;20581;-78
2024/03/21 08:45:45;;;;;;;1.50;1.00;;;12.80;98.20;;;;;;4873483;29;21232;-78
2024/03/21 08:48:11;;;;;;;1.50;0.90;;;12.80;98.20;;;;;;4876290;29;20214;-80
2024/03/21 08:50:39;;;;;;;1.47;1.00;;;12.80;98.20;;;;;;4877433;29;20497;-78
2024/03/21 08:53:05;;;;;;;1.50;1.00;;;12.80;98.20;;;;;;4883186;29;20476;-79
2024/03/21 08:55:33;;;;;;;1.50;0.90;;;12.80;98.20;;;;;;4880687;29;20493;-78
2024/03/21 08:57:59;;;;;;;1.50;1.00;;;12.80;98.20;;;;;;4879163;29;20931;-77
2024/03/21 09:00:26;;;;;;;1.50;1.00;;;12.80;98.20;;;;;;4881401;29;20469;-77
2024/03/21 09:02:52;;;;;;;1.50;1.10;;;12.90;98.20;;;;;;4879255;29;20241;-77
2024/03/21 09:05:19;;;;;;;1.50;1.00;;;12.90;98.20;;;;;;4873705;29;20576;-77
2024/03/21 09:07:45;;;;;;;1.50;1.00;;;12.90;98.20;;;;;;4879302;29;20213;-78
2024/03/21 09:10:12;;;;;;;1.47;0.90;;;13.00;98.20;;;;;;4870531;29;20520;-77
2024/03/21 09:12:42;;;;;;;1.50;1.00;;;13.00;98.20;;;;;;4876783;29;20478;-77
2024/03/21 09:15:11;;;;;;;1.50;1.00;;;13.10;98.20;;;;;;4873982;29;20534;-78
2024/03/21 09:17:37;;;;;;;1.50;1.10;;;13.20;98.20;;;;;;4873900;29;20584;-78
2024/03/21 09:20:05;;;;;;;1.50;1.00;;;13.40;98.20;;;;;;4875119;29;20566;-80
2024/03/21 09:22:32;;;;;;;1.87;1.67;;;13.50;98.20;;;;;;4876474;29;20473;-79
2024/03/21 09:24:59;;;;;;;1.50;1.00;;;13.60;98.20;;;;;;4878831;29;20488;-79
2024/03/21 09:27:25;;;;;;;1.43;0.90;;;13.60;98.20;;;;;;4873661;29;20493;-79
2024/03/21 09:29:53;;;;;;;1.50;1.00;;;13.70;98.20;;;;;;4870300;29;20485;-77
2024/03/21 09:32:20;;;;;;;1.50;1.10;;;13.70;98.20;;;;;;4873770;29;20560;-78
2024/03/21 09:34:49;;;;;;;1.50;1.00;;;13.70;98.20;;;;;;4873521;29;20485;-78
2024/03/21 09:37:16;;;;;;;1.50;1.00;;;13.70;98.20;;;;;;4878131;29;20497;-78
2024/03/21 09:39:44;;;;;;;2.00;1.70;;;13.70;98.20;;;;;;4897778;29;20541;-79
2024/03/21 09:42:15;;;;;;;1.53;1.17;;;13.80;98.20;;;;;;4895027;29;20580;-79
2024/03/21 09:44:46;;;;;;;1.50;1.00;;;13.90;98.20;;;;;;4888370;29;20481;-79
2024/03/21 09:47:13;;;;;;;1.50;1.00;;;14.00;98.20;;;;;;4892829;29;20536;-80
2024/03/21 09:49:40;;;;;;;1.50;1.00;;;14.10;98.20;;;;;;4889564;29;20478;-81
2024/03/21 09:52:08;;;;;;;1.50;1.00;;;14.30;98.20;;;;;;4891792;29;21036;-79
2024/03/21 09:54:35;;;;;;;1.50;1.00;;;14.60;98.20;;;;;;4887689;29;20473;-81
2024/03/21 09:57:02;;;;;;;1.50;0.90;;;14.90;98.20;;;;;;4885799;29;21151;-78
2024/03/21 09:59:30;;;;;;;1.50;1.00;;;15.10;98.20;;;;;;4880648;29;20480;-82
2024/03/21 10:01:55;;;;;;;1.50;0.93;;;15.20;98.20;;;;;;4884318;29;20576;-79
2024/03/21 10:04:24;;;;;;;1.50;1.00;;;15.30;98.20;;;;;;4887192;29;20505;-81
2024/03/21 10:06:50;;;;;;;1.50;0.90;;;15.40;98.20;;;;;;4882362;29;20241;-79
2024/03/21 10:09:17;;;;;;;1.50;0.90;;;15.60;98.20;;;;;;4885583;29;20470;-79
2024/03/21 10:11:46;;;;;;;1.50;0.97;;;15.70;98.20;;;;;;4887515;29;20480;-79
2024/03/21 10:14:14;;;;;;;1.50;0.90;;;15.80;98.20;;;;;;4884000;29;20573;-80
2024/03/21 10:16:41;;;;;;;1.50;0.90;;;15.90;98.20;;;;;;4884669;29;20763;-79
2024/03/21 10:19:09;;;;;;;1.50;0.90;;;16.00;98.20;;;;;;4883434;29;20476;-80
2024/03/21 10:24:22;;;;;;;1.60;1.20;;;16.10;98.20;;;;;;5145108;23;20736;-80
2024/03/21 10:26:48;;;;;;;1.50;0.90;;;16.00;98.20;;;;;;4872408;29;20473;-79
2024/03/21 10:29:16;;;;;;;1.50;0.90;;;15.90;98.20;;;;;;4884953;29;20490;-79
2024/03/21 10:31:44;;;;;;;2.57;1.40;;;16.00;98.20;;;;;;4876001;29;20469;-79
2024/03/21 10:34:11;;;;;;;1.50;1.00;;;16.10;98.20;;;;;;4904073;29;20555;-81
2024/03/21 10:36:54;;;;;;;1.60;1.00;;;16.20;98.20;;;;;;4928284;23;20510;-81
2024/03/21 10:39:22;;;;;;;1.50;0.90;;;16.20;98.20;;;;;;4878307;29;20473;-78
2024/03/21 10:41:49;;;;;;;1.50;0.90;;;16.20;98.20;;;;;;4873711;29;20731;-78
2024/03/21 10:44:17;;;;;;;1.50;0.90;;;16.10;98.20;;;;;;4875481;29;20544;-77
2024/03/21 10:46:47;;;;;;;1.50;0.90;;;16.00;98.20;;;;;;4876446;29;20785;-78
2024/03/21 10:49:14;;;;;;;1.50;0.90;;;15.90;98.20;;;;;;4870664;29;20525;-77
2024/03/21 10:51:46;;;;;;;1.50;0.90;;;15.80;98.20;;;;;;4874837;29;20711;-78
2024/03/21 10:54:13;;;;;;;1.50;0.90;;;15.80;98.20;;;;;;4870489;29;20485;-78
2024/03/21 10:56:42;;;;;;;1.50;0.90;;;15.60;98.20;;;;;;4881770;29;20818;-80
2024/03/21 10:59:14;;;;;;;1.50;0.90;;;15.50;98.20;;;;;;4881347;29;20494;-79
2024/03/21 11:01:43;;;;;;;1.47;0.90;;;15.50;98.20;;;;;;4878215;29;20500;-81
2024/03/21 11:04:10;;;;;;;1.50;0.90;;;15.60;98.20;;;;;;4882408;29;20505;-81
2024/03/21 11:06:39;;;;;;;1.47;0.90;;;15.60;98.20;;;;;;4871821;29;20497;-80
2024/03/21 11:09:05;;;;;;;1.50;0.90;;;15.80;98.20;;;;;;4874160;29;20466;-80
2024/03/21 11:11:33;;;;;;;1.50;1.00;;;16.00;98.20;;;;;;4880006;29;20473;-80
2024/03/21 11:14:25;;;;;;;1.50;0.90;;;16.00;98.20;;;;;;4875876;29;20988;-81
2024/03/21 11:16:54;;;;;;;1.50;0.90;;;16.20;98.20;;;;;;4873890;29;20582;-79
2024/03/21 11:19:21;;;;;;;1.47;0.90;;;16.30;98.20;;;;;;4875304;29;20463;-81
2024/03/21 11:21:54;;;;;;;1.50;0.90;;;16.30;98.20;;;;;;4883053;29;21366;-80
2024/03/21 11:24:22;;;;;;;1.50;0.90;;;16.20;98.20;;;;;;4880498;29;20484;-80
2024/03/21 11:26:49;;;;;;;1.50;0.90;;;16.20;98.20;;;;;;4882381;29;20498;-82
2024/03/21 11:29:15;;;;;;;1.47;1.00;;;16.10;98.20;;;;;;4882253;29;20748;-79
2024/03/21 11:31:44;;;;;;;1.50;0.90;;;16.00;98.20;;;;;;4882620;29;20473;-82
2024/03/21 11:34:12;;;;;;;1.47;0.90;;;15.90;98.20;;;;;;4881070;29;20600;-79
2024/03/21 11:36:39;;;;;;;1.50;0.90;;;15.90;98.20;;;;;;4880558;29;20493;-79
2024/03/21 11:39:11;;;;;;;1.50;0.90;;;15.80;98.20;;;;;;4874442;29;20561;-79
2024/03/21 11:41:39;;;;;;;1.47;0.90;;;15.70;98.20;;;;;;4874361;29;21037;-79
2024/03/21 11:44:05;;;;;;;1.50;0.90;;;15.60;98.20;;;;;;4874977;29;20562;-80
2024/03/21 11:46:33;;;;;;;1.47;0.90;;;15.60;98.20;;;;;;4880986;29;20580;-80
2024/03/21 11:49:02;;;;;;;1.47;0.90;;;15.90;98.20;;;;;;4883694;29;20219;-77
2024/03/21 11:51:30;;;;;;;1.50;0.90;;;16.30;98.20;;;;;;4882273;29;20529;-79
2024/03/21 11:54:03;;;;;;;1.50;0.90;;;16.60;98.20;;;;;;4881282;29;20488;-82
2024/03/21 11:56:30;;;;;;;1.50;0.90;;;16.70;98.20;;;;;;4891927;29;20501;-80
2024/03/21 11:58:56;;;;;;;1.50;0.90;;;16.80;98.20;;;;;;4878049;29;20498;-79
2024/03/21 12:01:23;;;;;;;1.50;0.90;;;16.80;97.70;;;;;;4882764;29;20475;-79
2024/03/21 12:04:19;;;;;;;;;;;;;;;;;;;;;
2024/03/21 12:10:07;;;;;;;;;;;;;;;;;;;;;
2024/03/21 12:12:34;;;;;;;1.50;0.90;;;16.90;98.20;;;;;;4879196;29;20643;-81
2024/03/21 12:15:00;;;;;;;1.50;0.90;;;17.00;98.00;;;;;;4877467;29;20886;-80
2024/03/21 12:17:27;;;;;;;1.50;0.90;;;16.90;97.50;;;;;;4872388;29;20635;-80
2024/03/21 12:19:53;;;;;;;1.50;0.90;;;16.90;98.10;;;;;;4871010;29;20221;-81
2024/03/21 12:22:22;;;;;;;1.50;0.90;;;16.80;96.70;;;;;;4878393;29;21277;-80
2024/03/21 12:24:48;;;;;;;1.47;0.90;;;16.80;97.60;;;;;;4884043;29;20709;-79
2024/03/21 12:27:15;;;;;;;1.50;0.90;;;16.80;97.50;;;;;;4878848;29;20493;-79
2024/03/21 12:29:43;;;;;;;1.50;0.90;;;16.80;98.20;;;;;;4883542;29;20213;-80
2024/03/21 12:32:10;;;;;;;1.47;0.90;;;16.80;98.20;;;;;;4883084;29;20481;-80
2024/03/21 12:34:36;;;;;;;1.47;0.90;;;16.70;98.20;;;;;;4877229;29;20469;-77
2024/03/21 12:37:04;;;;;;;1.50;0.90;;;16.70;98.20;;;;;;4879856;29;20501;-78
2024/03/21 12:39:32;;;;;;;1.47;0.90;;;16.70;98.20;;;;;;4876298;29;20883;-78
2024/03/21 12:41:59;;;;;;;1.50;0.90;;;16.90;98.20;;;;;;4875665;29;20904;-80
2024/03/21 12:44:25;;;;;;;1.47;0.90;;;17.00;98.20;;;;;;4878777;29;20573;-80
2024/03/21 12:46:52;;;;;;;1.50;1.00;;;17.20;97.80;;;;;;4879279;29;20588;-81
2024/03/21 12:49:18;;;;;;;1.47;0.90;;;17.20;96.60;;;;;;4879989;29;20473;-78
2024/03/21 12:51:45;;;;;;;1.50;0.90;;;17.40;97.50;;;;;;4878885;29;20470;-79
2024/03/21 12:54:11;;;;;;;1.50;0.90;;;17.60;96.70;;;;;;4881176;29;20213;-80
2024/03/21 12:56:39;;;;;;;1.50;0.90;;;17.80;96.20;;;;;;4875742;29;20494;-79
2024/03/21 12:59:05;;;;;;;1.50;0.90;;;18.10;95.60;;;;;;4877513;29;20226;-81
2024/03/21 13:01:32;;;;;;;1.50;1.00;;;18.30;94.50;;;;;;4876210;29;20476;-80